createdAt,value
2022-08-17T00:00:43.158Z,3.80
2022-08-17T00:03:48.286Z,3.70
2022-08-17T00:06:51.485Z,3.63
2022-08-17T00:09:54.524Z,3.97
2022-08-17T00:12:57.159Z,3.80
2022-08-17T00:16:04.330Z,3.47
2022-08-17T00:19:10.419Z,3.83
2022-08-17T00:22:34.726Z,3.80
2022-08-17T00:25:35.748Z,3.50
2022-08-17T00:28:40.011Z,3.78
2022-08-17T00:31:42.826Z,3.53
2022-08-17T00:34:45.428Z,3.63
2022-08-17T00:37:48.025Z,3.60
2022-08-17T00:40:59.333Z,4.20
2022-08-17T00:44:04.184Z,4.18
2022-08-17T00:47:06.823Z,3.80
2022-08-17T00:50:12.512Z,4.17
2022-08-17T00:53:15.869Z,3.60
2022-08-17T00:56:26.454Z,4.00
2022-08-17T00:59:34.166Z,3.50
2022-08-17T01:02:42.022Z,3.83
2022-08-17T01:05:48.596Z,4.07
2022-08-17T01:08:57.356Z,3.75
2022-08-17T01:12:00.843Z,4.03
2022-08-17T01:15:05.380Z,4.25
2022-08-17T01:18:11.517Z,3.80
2022-08-17T01:21:24.795Z,3.60
2022-08-17T01:24:27.701Z,3.80
2022-08-17T01:27:31.134Z,3.85
2022-08-17T01:30:58.541Z,3.63
2022-08-17T01:34:01.905Z,3.63
2022-08-17T01:37:04.791Z,3.50
2022-08-17T01:40:18.017Z,4.00
2022-08-17T01:43:30.423Z,3.70
2022-08-17T01:46:35.699Z,3.90
2022-08-17T01:49:38.612Z,3.72
2022-08-17T01:52:42.534Z,3.40
2022-08-17T01:55:55.585Z,3.60
2022-08-17T01:58:59.215Z,3.78
2022-08-17T02:02:02.733Z,3.70
2022-08-17T02:05:07.783Z,3.58
2022-08-17T02:08:19.874Z,3.70
2022-08-17T02:11:22.829Z,3.50
2022-08-17T02:14:27.032Z,4.10
2022-08-17T02:17:29.628Z,3.72
2022-08-17T02:20:41.513Z,3.85
2022-08-17T02:23:48.586Z,3.20
2022-08-17T02:26:51.149Z,3.90
2022-08-17T02:29:54.299Z,3.30
2022-08-17T02:32:56.929Z,3.45
2022-08-17T02:35:59.615Z,3.83
2022-08-17T02:39:07.015Z,3.57
2022-08-17T02:42:10.054Z,3.80
2022-08-17T02:45:16.649Z,3.97
2022-08-17T02:48:30.665Z,3.90
2022-08-17T02:51:35.565Z,3.38
2022-08-17T02:54:41.775Z,3.50
2022-08-17T02:57:45.258Z,3.45
2022-08-17T03:00:48.274Z,3.67
2022-08-17T03:03:50.899Z,3.50
2022-08-17T03:06:53.661Z,4.05
2022-08-17T03:09:56.205Z,3.83
2022-08-17T03:12:59.653Z,3.80
2022-08-17T03:16:02.278Z,4.05
2022-08-17T03:19:05.065Z,3.53
2022-08-17T03:22:36.010Z,3.70
2022-08-17T03:25:38.733Z,3.40
2022-08-17T03:28:41.306Z,3.55
2022-08-17T03:31:43.902Z,4.10
2022-08-17T03:34:46.585Z,3.50
2022-08-17T03:37:59.962Z,3.67
2022-08-17T03:41:05.713Z,3.83
2022-08-17T03:44:08.288Z,3.70
2022-08-17T03:47:29.495Z,3.53
2022-08-17T03:50:51.662Z,3.28
2022-08-17T03:54:16.706Z,3.50
2022-08-17T03:57:19.525Z,3.50
2022-08-17T04:00:22.748Z,3.50
2022-08-17T04:03:25.287Z,3.58
2022-08-17T04:06:27.975Z,3.95
2022-08-17T04:09:30.689Z,3.70
2022-08-17T04:12:55.769Z,3.67
2022-08-17T04:16:00.042Z,3.40
2022-08-17T04:19:05.032Z,3.53
2022-08-17T04:22:08.009Z,3.55
2022-08-17T04:25:18.189Z,3.60
2022-08-17T04:28:20.838Z,3.53
2022-08-17T04:31:23.427Z,3.53
2022-08-17T04:34:26.242Z,3.70
2022-08-17T04:37:28.838Z,3.40
2022-08-17T04:40:49.998Z,3.42
2022-08-17T04:43:56.207Z,3.53
2022-08-17T04:46:58.787Z,3.80
2022-08-17T04:50:02.584Z,3.90
2022-08-17T04:53:05.448Z,3.88
2022-08-17T04:56:11.779Z,3.45
2022-08-17T04:59:21.959Z,3.87
2022-08-17T05:02:24.459Z,3.80
2022-08-17T05:05:31.283Z,4.07
2022-08-17T05:08:34.487Z,4.32
2022-08-17T05:11:37.470Z,4.47
2022-08-17T05:14:40.083Z,4.60
2022-08-17T05:17:45.495Z,5.50
2022-08-17T05:20:48.805Z,7.10
2022-08-17T05:23:58.526Z,6.90
2022-08-17T05:27:06.577Z,7.20
2022-08-17T05:30:09.742Z,6.70
2022-08-17T05:33:16.649Z,6.25
2022-08-17T05:36:42.516Z,5.95
2022-08-17T05:39:42.134Z,5.30
2022-08-17T05:42:44.835Z,6.00
2022-08-17T05:46:15.034Z,5.23
2022-08-17T05:49:21.952Z,5.80
2022-08-17T05:52:39.467Z,5.15
2022-08-17T05:55:49.170Z,5.57
2022-08-17T05:58:55.843Z,6.00
2022-08-17T06:02:19.812Z,6.47
2022-08-17T06:06:01.532Z,7.00
2022-08-17T06:09:09.789Z,6.72
2022-08-17T06:12:39.210Z,6.32
2022-08-17T06:15:44.485Z,6.72
2022-08-17T06:19:01.755Z,5.40
2022-08-17T06:22:06.641Z,5.75
2022-08-17T06:25:31.815Z,5.70
2022-08-17T06:28:41.955Z,5.60
2022-08-17T06:31:44.552Z,5.55
2022-08-17T06:34:47.587Z,5.07
2022-08-17T06:38:38.344Z,5.40
2022-08-17T06:41:58.421Z,5.50
2022-08-17T06:45:10.689Z,5.50
2022-08-17T06:48:19.677Z,5.65
2022-08-17T06:51:33.094Z,5.70
2022-08-17T06:54:45.850Z,5.93
2022-08-17T06:57:56.654Z,5.68
2022-08-17T07:01:15.567Z,5.95
2022-08-17T07:04:24.696Z,5.30
2022-08-17T07:07:46.849Z,5.60
2022-08-17T07:10:56.818Z,5.80
2022-08-17T07:14:30.312Z,5.68
2022-08-17T07:17:47.256Z,5.10
2022-08-17T07:20:56.041Z,5.22
2022-08-17T07:24:30.116Z,6.27
2022-08-17T07:27:40.437Z,6.18
2022-08-17T07:30:51.389Z,5.88
2022-08-17T07:34:08.918Z,6.00
2022-08-17T07:37:13.173Z,6.20
2022-08-17T07:40:19.515Z,6.00
2022-08-17T07:43:25.132Z,5.93
2022-08-17T07:47:03.714Z,6.15
2022-08-17T07:50:27.809Z,6.00
2022-08-17T07:53:32.304Z,6.10
2022-08-17T07:56:53.311Z,6.40
2022-08-17T08:00:02.338Z,6.10
2022-08-17T08:03:28.640Z,6.20
2022-08-17T08:06:36.383Z,6.65
2022-08-17T08:09:43.879Z,6.55
2022-08-17T08:12:53.890Z,5.70
2022-08-17T08:16:26.563Z,6.20
2022-08-17T08:19:30.867Z,5.68
2022-08-17T08:22:43.587Z,6.07
2022-08-17T08:26:05.281Z,6.53
2022-08-17T08:29:22.621Z,5.90
2022-08-17T08:32:54.178Z,6.00
2022-08-17T08:36:56.928Z,6.35
2022-08-17T08:40:11.111Z,5.75
2022-08-17T08:43:20.332Z,6.22
2022-08-17T08:46:50.539Z,5.90
2022-08-17T08:50:03.972Z,5.50
2022-08-17T08:53:14.670Z,5.85
2022-08-17T08:57:21.499Z,5.70
2022-08-17T09:00:20.911Z,5.47
2022-08-17T09:03:52.396Z,5.70
2022-08-17T09:07:02.921Z,6.47
2022-08-17T09:10:42.987Z,6.05
2022-08-17T09:14:21.684Z,5.60
2022-08-17T09:19:01.561Z,6.00
2022-08-17T09:21:53.192Z,5.10
2022-08-17T09:25:06.977Z,5.47
2022-08-17T09:28:19.597Z,5.75
2022-08-17T09:31:35.578Z,5.70
2022-08-17T09:34:55.081Z,5.70
2022-08-17T09:38:16.361Z,5.13
2022-08-17T09:41:31.473Z,5.40
2022-08-17T09:44:41.019Z,6.07
2022-08-17T09:47:50.463Z,5.55
2022-08-17T09:51:30.994Z,5.65
2022-08-17T09:54:39.834Z,5.60
2022-08-17T09:57:49.469Z,6.07
2022-08-17T10:01:17.245Z,5.68
2022-08-17T10:04:47.840Z,6.25
2022-08-17T10:07:56.132Z,6.80
2022-08-17T10:11:16.863Z,6.40
2022-08-17T10:14:37.438Z,6.55
2022-08-17T10:18:12.464Z,7.22
2022-08-17T10:21:35.302Z,6.40
2022-08-17T10:25:23.121Z,5.82
2022-08-17T10:28:30.317Z,6.63
2022-08-17T10:31:45.025Z,6.05
2022-08-17T10:34:59.507Z,6.90
2022-08-17T10:38:05.490Z,6.72
2022-08-17T10:41:29.220Z,6.30
2022-08-17T10:45:00.665Z,6.10
2022-08-17T10:48:07.030Z,6.25
2022-08-17T10:51:38.112Z,5.70
2022-08-17T10:54:47.015Z,5.57
2022-08-17T10:57:50.939Z,5.53
2022-08-17T11:00:53.771Z,5.90
2022-08-17T11:03:59.322Z,5.07
2022-08-17T11:07:16.035Z,5.18
2022-08-17T11:10:52.303Z,5.60
2022-08-17T11:14:14.154Z,5.90
2022-08-17T11:17:22.856Z,5.47
2022-08-17T11:20:38.533Z,5.32
2022-08-17T11:23:47.093Z,5.57
2022-08-17T11:27:12.231Z,5.30
2022-08-17T11:30:44.673Z,5.20
2022-08-17T11:34:02.199Z,4.73
2022-08-17T11:37:23.775Z,5.45
2022-08-17T11:40:34.952Z,4.97
2022-08-17T11:43:45.526Z,5.00
2022-08-17T11:47:19.862Z,5.63
2022-08-17T11:50:55.644Z,5.50
2022-08-17T11:54:28.916Z,5.70
2022-08-17T11:57:26.104Z,5.50
2022-08-17T12:00:49.761Z,5.60
2022-08-17T12:04:16.535Z,5.45
2022-08-17T12:07:21.664Z,5.10
2022-08-17T12:10:32.962Z,5.30
2022-08-17T12:13:51.805Z,5.65
2022-08-17T12:17:04.309Z,5.20
2022-08-17T12:20:24.428Z,5.45
2022-08-17T12:23:50.327Z,5.07
2022-08-17T12:26:59.398Z,5.03
2022-08-17T12:30:09.843Z,5.18
2022-08-17T12:33:28.074Z,5.15
2022-08-17T12:36:33.181Z,5.38
2022-08-17T12:39:38.714Z,5.47
2022-08-17T12:42:58.687Z,4.75
2022-08-17T12:46:12.932Z,4.95
2022-08-17T12:49:48.330Z,5.25
2022-08-17T12:52:51.130Z,5.38
2022-08-17T12:56:00.372Z,5.30
2022-08-17T12:59:04.340Z,4.72
2022-08-17T13:02:16.879Z,5.38
2022-08-17T13:05:25.135Z,5.53
2022-08-17T13:08:43.224Z,5.18
2022-08-17T13:11:53.026Z,4.87
2022-08-17T13:14:57.605Z,5.10
2022-08-17T13:18:08.075Z,5.25
2022-08-17T13:21:19.738Z,4.80
2022-08-17T13:24:27.281Z,5.10
2022-08-17T13:27:30.255Z,4.97
2022-08-17T13:30:35.985Z,4.70
2022-08-17T13:33:43.722Z,5.50
2022-08-17T13:36:47.971Z,5.35
2022-08-17T13:40:01.102Z,5.43
2022-08-17T13:43:04.510Z,4.57
2022-08-17T13:46:28.417Z,4.88
2022-08-17T13:49:41.867Z,4.90
2022-08-17T13:52:52.359Z,5.00
2022-08-17T13:55:59.296Z,4.65
2022-08-17T13:59:11.311Z,4.60
2022-08-17T14:02:16.169Z,4.75
2022-08-17T14:05:18.807Z,4.72
2022-08-17T14:08:21.477Z,4.57
2022-08-17T14:11:24.381Z,5.22
2022-08-17T14:14:29.335Z,4.57
2022-08-17T14:17:36.604Z,4.68
2022-08-17T14:20:41.977Z,4.93
2022-08-17T14:23:49.013Z,5.15
2022-08-17T14:26:59.468Z,4.90
2022-08-17T14:30:08.135Z,4.80
2022-08-17T14:33:12.015Z,4.82
2022-08-17T14:36:14.620Z,5.10
2022-08-17T14:39:18.612Z,4.63
2022-08-17T14:42:24.671Z,5.15
2022-08-17T14:45:32.820Z,4.70
2022-08-17T14:48:38.437Z,4.63
2022-08-17T14:51:44.003Z,5.15
2022-08-17T14:54:52.352Z,4.75
2022-08-17T14:57:54.916Z,4.93
2022-08-17T15:00:58.442Z,4.83
2022-08-17T15:04:01.110Z,4.65
2022-08-17T15:07:04.680Z,5.03
2022-08-17T15:10:09.007Z,5.00
2022-08-17T15:13:23.774Z,4.80
2022-08-17T15:16:27.091Z,4.37
2022-08-17T15:19:29.678Z,5.35
2022-08-17T15:22:35.212Z,4.47
2022-08-17T15:25:37.739Z,4.68
2022-08-17T15:28:40.339Z,4.90
2022-08-17T15:31:43.406Z,4.67
2022-08-17T15:34:45.985Z,4.65
2022-08-17T15:37:48.550Z,5.13
2022-08-17T15:40:53.176Z,4.15
2022-08-17T15:43:56.552Z,4.65
2022-08-17T15:46:59.303Z,4.77
2022-08-17T15:50:02.269Z,4.45
2022-08-17T15:53:05.040Z,5.10
2022-08-17T15:56:07.982Z,4.93
2022-08-17T15:59:10.605Z,4.55
2022-08-17T16:03:13.529Z,4.80
2022-08-17T16:05:38.569Z,4.40
2022-08-17T16:08:44.065Z,5.20
2022-08-17T16:11:46.677Z,4.50
2022-08-17T16:14:58.053Z,4.72
2022-08-17T16:18:00.937Z,4.10
2022-08-17T16:21:25.897Z,4.43
2022-08-17T16:24:29.019Z,4.53
2022-08-17T16:27:31.609Z,4.90
2022-08-17T16:30:34.398Z,4.32
2022-08-17T16:33:39.088Z,4.53
2022-08-17T16:36:41.853Z,4.50
2022-08-17T16:40:00.403Z,4.40
2022-08-17T16:43:10.635Z,4.55
2022-08-17T16:46:13.412Z,4.88
2022-08-17T16:49:36.918Z,4.40
2022-08-17T16:52:41.705Z,4.30
2022-08-17T16:55:45.991Z,4.50
2022-08-17T16:58:48.500Z,4.72
2022-08-17T17:01:53.586Z,4.65
2022-08-17T17:05:30.962Z,4.57
2022-08-17T17:08:42.208Z,4.95
2022-08-17T17:11:52.442Z,4.43
2022-08-17T17:14:59.335Z,4.50
2022-08-17T17:18:07.133Z,4.53
2022-08-17T17:21:17.062Z,4.50
2022-08-17T17:24:33.887Z,4.50
2022-08-17T17:28:01.535Z,4.80
2022-08-17T17:31:10.691Z,4.07
2022-08-17T17:34:16.676Z,4.38
2022-08-17T17:37:32.414Z,4.70
2022-08-17T17:40:45.513Z,4.65
2022-08-17T17:43:56.393Z,4.78
2022-08-17T17:47:04.830Z,4.25
2022-08-17T17:50:09.042Z,4.57
2022-08-17T17:53:34.840Z,5.10
2022-08-17T17:57:21.343Z,4.78
2022-08-17T18:00:51.798Z,4.93
2022-08-17T18:04:15.750Z,4.68
2022-08-17T18:07:37.436Z,4.97
2022-08-17T18:10:55.892Z,5.03
2022-08-17T18:14:10.762Z,4.82
2022-08-17T18:17:14.646Z,4.97
2022-08-17T18:20:32.415Z,4.40
2022-08-17T18:23:56.530Z,5.10
2022-08-17T18:27:01.842Z,4.93
2022-08-17T18:30:14.533Z,4.50
2022-08-17T18:33:26.660Z,5.00
2022-08-17T18:36:36.487Z,5.05
2022-08-17T18:39:39.327Z,5.03
2022-08-17T18:42:44.496Z,4.60
2022-08-17T18:45:55.681Z,4.70
2022-08-17T18:49:07.619Z,4.70
2022-08-17T18:52:32.105Z,4.80
2022-08-17T18:55:34.704Z,4.55
2022-08-17T18:58:40.271Z,4.77
2022-08-17T19:02:03.320Z,4.82
2022-08-17T19:05:39.622Z,4.63
2022-08-17T19:08:42.853Z,4.05
2022-08-17T19:11:47.938Z,4.53
2022-08-17T19:14:53.656Z,4.90
2022-08-17T19:18:14.708Z,4.60
2022-08-17T19:21:38.831Z,4.90
2022-08-17T19:24:47.574Z,4.50
2022-08-17T19:28:22.459Z,4.68
2022-08-17T19:31:27.475Z,4.40
2022-08-17T19:34:34.011Z,4.30
2022-08-17T19:38:13.025Z,4.63
2022-08-17T19:41:47.636Z,4.32
2022-08-17T19:45:11.832Z,4.80
2022-08-17T19:48:42.725Z,4.43
2022-08-17T19:51:56.818Z,4.60
2022-08-17T19:55:21.779Z,5.07
2022-08-17T19:58:46.653Z,4.80
2022-08-17T20:01:54.590Z,4.40
2022-08-17T20:05:02.377Z,4.47
2022-08-17T20:08:09.398Z,4.85
2022-08-17T20:11:24.997Z,4.85
2022-08-17T20:14:59.400Z,4.85
2022-08-17T20:18:09.203Z,4.90
2022-08-17T20:21:27.072Z,4.80
2022-08-17T20:24:43.383Z,4.35
2022-08-17T20:28:00.636Z,4.90
2022-08-17T20:31:46.272Z,4.47
2022-08-17T20:34:48.984Z,4.68
2022-08-17T20:38:36.294Z,4.53
2022-08-17T20:42:17.463Z,4.90
2022-08-17T20:45:25.213Z,4.70
2022-08-17T20:48:38.618Z,4.68
2022-08-17T20:52:00.692Z,5.00
2022-08-17T20:55:05.128Z,4.63
2022-08-17T20:58:16.266Z,4.72
2022-08-17T21:01:36.623Z,4.70
2022-08-17T21:05:00.323Z,4.50
2022-08-17T21:08:18.571Z,4.90
2022-08-17T21:12:02.945Z,4.77
2022-08-17T21:15:02.699Z,4.88
2022-08-17T21:18:29.067Z,5.10
2022-08-17T21:21:34.625Z,4.93
2022-08-17T21:25:12.222Z,5.20
2022-08-17T21:28:33.702Z,4.67
2022-08-17T21:31:44.166Z,4.80
2022-08-17T21:35:08.565Z,4.82
2022-08-17T21:38:13.934Z,5.00
2022-08-17T21:41:34.706Z,4.68
2022-08-17T21:44:42.311Z,4.70
2022-08-17T21:47:50.364Z,5.10
2022-08-17T21:51:20.840Z,5.72
2022-08-17T21:54:40.819Z,5.05
2022-08-17T21:57:53.041Z,5.57
2022-08-17T22:01:21.180Z,4.50
2022-08-17T22:04:36.952Z,4.75
2022-08-17T22:07:47.382Z,5.10
2022-08-17T22:10:59.759Z,4.75
2022-08-17T22:14:05.193Z,4.63
2022-08-17T22:17:21.227Z,5.37
2022-08-17T22:20:23.876Z,5.32
2022-08-17T22:23:52.930Z,5.53
2022-08-17T22:27:22.393Z,5.20
2022-08-17T22:30:33.253Z,5.60
2022-08-17T22:33:40.878Z,4.80
2022-08-17T22:36:43.577Z,4.80
2022-08-17T22:39:56.208Z,5.03
2022-08-17T22:43:02.293Z,5.07
2022-08-17T22:46:08.566Z,5.20
2022-08-17T22:49:11.338Z,5.20
2022-08-17T22:52:16.536Z,5.28
2022-08-17T22:55:38.130Z,5.55
2022-08-17T22:59:18.841Z,5.15
2022-08-17T23:02:31.895Z,5.65
2022-08-17T23:05:35.906Z,5.57
2022-08-17T23:08:50.300Z,5.30
2022-08-17T23:11:58.785Z,5.65
2022-08-17T23:15:02.548Z,5.47
2022-08-17T23:18:05.964Z,5.57
2022-08-17T23:21:08.861Z,5.43
2022-08-17T23:24:23.291Z,5.57
2022-08-17T23:27:29.498Z,5.35
2022-08-17T23:30:35.079Z,5.50
2022-08-17T23:33:40.220Z,5.45
2022-08-17T23:36:52.921Z,4.97
2022-08-17T23:39:55.679Z,5.40
2022-08-17T23:42:58.506Z,4.95
2022-08-17T23:46:03.801Z,5.20
2022-08-17T23:49:06.750Z,6.00
2022-08-17T23:52:15.175Z,5.10
2022-08-17T23:55:19.177Z,4.82
2022-08-17T23:58:21.809Z,5.60
